sensor_id;sensor_type;location;lat;lon;timestamp;pressure;altitude;pressure_sealevel;temperature;humidity
61474;BME280;53694;49.784;30.150;2022-09-13T00:00:12;98782.47;;;13.97;72.66
61474;BME280;53694;49.784;30.150;2022-09-13T00:01:14;98770.80;;;14.28;71.61
61474;BME280;53694;49.784;30.150;2022-09-13T00:02:15;98782.37;;;14.60;70.60
61474;BME280;53694;49.784;30.150;2022-09-13T00:03:17;98772.66;;;15.20;68.93
61474;BME280;53694;49.784;30.150;2022-09-13T00:04:19;98772.66;;;15.20;68.93
61474;BME280;53694;49.784;30.150;2022-09-13T00:05:21;98774.72;;;15.47;67.41
61474;BME280;53694;49.784;30.150;2022-09-13T00:06:22;98768.56;;;15.63;66.54
61474;BME280;53694;49.784;30.150;2022-09-13T00:07:24;98770.20;;;15.60;66.26
61474;BME280;53694;49.784;30.150;2022-09-13T00:08:26;98773.94;;;15.46;66.24
61474;BME280;53694;49.784;30.150;2022-09-13T00:09:27;98779.35;;;15.23;66.54
61474;BME280;53694;49.784;30.150;2022-09-13T00:10:29;98776.50;;;14.96;67.28
61474;BME280;53694;49.784;30.150;2022-09-13T00:11:31;98777.95;;;14.70;68.14
61474;BME280;53694;49.784;30.150;2022-09-13T00:12:33;98776.20;;;14.42;68.81
61474;BME280;53694;49.784;30.150;2022-09-13T00:13:34;98778.79;;;14.15;69.63
61474;BME280;53694;49.784;30.150;2022-09-13T00:14:36;98777.36;;;13.89;70.50
61474;BME280;53694;49.784;30.150;2022-09-13T00:15:43;98775.93;;;13.66;71.33
61474;BME280;53694;49.784;30.150;2022-09-13T00:16:45;98770.52;;;13.45;72.19
61474;BME280;53694;49.784;30.150;2022-09-13T00:17:47;98776.11;;;13.31;73.19
61474;BME280;53694;49.784;30.150;2022-09-13T00:18:48;98773.34;;;13.34;73.61
61474;BME280;53694;49.784;30.150;2022-09-13T00:19:50;98772.08;;;13.49;73.50
61474;BME280;53694;49.784;30.150;2022-09-13T00:21:01;98763.25;;;13.76;72.97
61474;BME280;53694;49.784;30.150;2022-09-13T00:21:55;98764.25;;;14.07;72.29
61474;BME280;53694;49.784;30.150;2022-09-13T00:22:57;98767.52;;;14.40;71.30
61474;BME280;53694;49.784;30.150;2022-09-13T00:23:58;98781.47;;;14.74;70.00
61474;BME280;53694;49.784;30.150;2022-09-13T00:25:00;98776.02;;;15.05;68.87
61474;BME280;53694;49.784;30.150;2022-09-13T00:26:08;98766.58;;;15.33;67.94
61474;BME280;53694;49.784;30.150;2022-09-13T00:27:10;98769.03;;;15.58;66.97
61474;BME280;53694;49.784;30.150;2022-09-13T00:28:11;98770.45;;;15.73;66.15
61474;BME280;53694;49.784;30.150;2022-09-13T00:29:13;98772.58;;;15.58;65.67
61474;BME280;53694;49.784;30.150;2022-09-13T00:30:16;98772.58;;;15.58;65.67
61474;BME280;53694;49.784;30.150;2022-09-13T00:31:18;98773.70;;;15.34;66.25
61474;BME280;53694;49.784;30.150;2022-09-13T00:32:20;98770.45;;;15.08;66.91
61474;BME280;53694;49.784;30.150;2022-09-13T00:33:22;98767.98;;;14.80;67.61
61474;BME280;53694;49.784;30.150;2022-09-13T00:34:23;98764.70;;;14.50;68.48
61474;BME280;53694;49.784;30.150;2022-09-13T00:35:25;98765.30;;;14.24;69.28
61474;BME280;53694;49.784;30.150;2022-09-13T00:36:27;98770.22;;;13.98;70.16
61474;BME280;53694;49.784;30.150;2022-09-13T00:37:29;98763.30;;;13.72;70.98
61474;BME280;53694;49.784;30.150;2022-09-13T00:38:33;98772.08;;;13.49;71.92
61474;BME280;53694;49.784;30.150;2022-09-13T00:39:34;98768.98;;;13.37;72.81
61474;BME280;53694;49.784;30.150;2022-09-13T00:40:36;98759.91;;;13.40;73.38
61474;BME280;53694;49.784;30.150;2022-09-13T00:41:38;98767.31;;;13.57;73.26
61474;BME280;53694;49.784;30.150;2022-09-13T00:42:40;98768.73;;;13.83;72.71
61474;BME280;53694;49.784;30.150;2022-09-13T00:43:47;98761.47;;;14.11;71.87
61474;BME280;53694;49.784;30.150;2022-09-13T00:46:00;98759.72;;;14.76;69.73
61474;BME280;53694;49.784;30.150;2022-09-13T00:47:02;98758.97;;;15.10;68.45
61474;BME280;53694;49.784;30.150;2022-09-13T00:48:05;98771.33;;;15.32;67.45
61474;BME280;53694;49.784;30.150;2022-09-13T00:50:34;98768.02;;;15.44;66.64
61474;BME280;53694;49.784;30.150;2022-09-13T00:51:37;98772.16;;;15.29;66.88
61474;BME280;53694;49.784;30.150;2022-09-13T00:52:39;98766.13;;;15.04;67.28
61474;BME280;53694;49.784;30.150;2022-09-13T00:53:47;98757.73;;;14.77;67.90
61474;BME280;53694;49.784;30.150;2022-09-13T00:54:58;98762.72;;;14.47;68.71
61474;BME280;53694;49.784;30.150;2022-09-13T00:56:02;98756.26;;;14.20;69.64
61474;BME280;53694;49.784;30.150;2022-09-13T00:57:06;98757.66;;;13.90;70.56
61474;BME280;53694;49.784;30.150;2022-09-13T00:58:15;98763.74;;;13.64;71.41
61474;BME280;53694;49.784;30.150;2022-09-13T00:59:20;98765.80;;;13.42;72.36
61474;BME280;53694;49.784;30.150;2022-09-13T01:00:22;98758.80;;;13.27;73.33
61474;BME280;53694;49.784;30.150;2022-09-13T01:01:28;98759.57;;;13.31;73.63
61474;BME280;53694;49.784;30.150;2022-09-13T01:02:30;98757.91;;;13.47;73.44
61474;BME280;53694;49.784;30.150;2022-09-13T01:03:34;98760.13;;;13.74;72.89
61474;BME280;53694;49.784;30.150;2022-09-13T01:04:36;98759.55;;;14.00;72.14
61474;BME280;53694;49.784;30.150;2022-09-13T01:05:44;98760.52;;;14.32;71.36
61474;BME280;53694;49.784;30.150;2022-09-13T01:06:47;98760.23;;;14.64;70.16
61474;BME280;53694;49.784;30.150;2022-09-13T01:07:50;98761.94;;;14.92;69.09
61474;BME280;53694;49.784;30.150;2022-09-13T01:08:52;98762.44;;;15.17;68.28
61474;BME280;53694;49.784;30.150;2022-09-13T01:09:54;98757.84;;;15.38;67.26
61474;BME280;53694;49.784;30.150;2022-09-13T01:10:57;98764.05;;;15.45;66.26
61474;BME280;53694;49.784;30.150;2022-09-13T01:12:06;98761.05;;;15.33;66.43
61474;BME280;53694;49.784;30.150;2022-09-13T01:13:15;98762.48;;;15.14;67.14
61474;BME280;53694;49.784;30.150;2022-09-13T01:14:17;98758.00;;;14.89;67.68
61474;BME280;53694;49.784;30.150;2022-09-13T01:15:20;98750.41;;;14.59;68.54
61474;BME280;53694;49.784;30.150;2022-09-13T01:16:23;98760.52;;;14.32;69.40
61474;BME280;53694;49.784;30.150;2022-09-13T01:17:26;98756.77;;;14.04;70.35
61474;BME280;53694;49.784;30.150;2022-09-13T01:18:29;98753.81;;;13.77;71.34
61474;BME280;53694;49.784;30.150;2022-09-13T01:19:30;98752.75;;;13.53;72.37
61474;BME280;53694;49.784;30.150;2022-09-13T01:32:42;98741.78;;;15.56;66.62
61474;BME280;53694;49.784;30.150;2022-09-13T01:37:48;98741.41;;;14.52;69.03
61474;BME280;53694;49.784;30.150;2022-09-13T01:39:10;98746.51;;;14.05;70.49
61474;BME280;53694;49.784;30.150;2022-09-13T01:44:13;98739.90;;;13.18;75.08
61474;BME280;53694;49.784;30.150;2022-09-13T01:45:30;98742.17;;;13.41;74.75
61474;BME280;53694;49.784;30.150;2022-09-13T01:48:00;98735.87;;;14.03;73.17
61474;BME280;53694;49.784;30.150;2022-09-13T01:50:16;98736.41;;;14.77;71.14
61474;BME280;53694;49.784;30.150;2022-09-13T01:51:33;98735.28;;;15.09;70.08
61474;BME280;53694;49.784;30.150;2022-09-13T01:59:37;98724.47;;;14.87;68.05
61474;BME280;53694;49.784;30.150;2022-09-13T02:00:45;98717.74;;;14.50;69.15
61474;BME280;53694;49.784;30.150;2022-09-13T02:01:56;98722.86;;;14.04;70.90
61474;BME280;53694;49.784;30.150;2022-09-13T02:03:08;98727.81;;;13.71;72.14
61474;BME280;53694;49.784;30.150;2022-09-13T02:04:17;98723.66;;;13.41;73.43
61474;BME280;53694;49.784;30.150;2022-09-13T02:06:33;98717.45;;;13.23;75.04
61474;BME280;53694;49.784;30.150;2022-09-13T02:07:34;98717.37;;;13.37;75.11
61474;BME280;53694;49.784;30.150;2022-09-13T02:08:46;98723.17;;;13.57;74.69
61474;BME280;53694;49.784;30.150;2022-09-13T02:09:51;98716.72;;;13.82;74.04
61474;BME280;53694;49.784;30.150;2022-09-13T02:10:57;98712.58;;;14.08;73.16
61474;BME280;53694;49.784;30.150;2022-09-13T02:12:12;98714.31;;;14.36;72.47
61474;BME280;53694;49.784;30.150;2022-09-13T02:13:13;98716.84;;;14.61;71.69
61474;BME280;53694;49.784;30.150;2022-09-13T02:14:21;98713.41;;;14.87;70.78
61474;BME280;53694;49.784;30.150;2022-09-13T02:15:43;98703.66;;;15.10;69.83
61474;BME280;53694;49.784;30.150;2022-09-13T02:16:51;98707.36;;;15.30;69.12
61474;BME280;53694;49.784;30.150;2022-09-13T02:17:58;98700.80;;;15.47;68.25
61474;BME280;53694;49.784;30.150;2022-09-13T02:19:02;98706.95;;;15.59;68.00
61474;BME280;53694;49.784;30.150;2022-09-13T02:20:06;98706.28;;;15.51;67.62
61474;BME280;53694;49.784;30.150;2022-09-13T02:21:11;98710.52;;;15.29;67.98
61474;BME280;53694;49.784;30.150;2022-09-13T02:22:15;98712.88;;;14.99;68.75
61474;BME280;53694;49.784;30.150;2022-09-13T02:23:42;98705.72;;;14.68;69.73
61474;BME280;53694;49.784;30.150;2022-09-13T02:24:44;98707.59;;;14.37;70.71
61474;BME280;53694;49.784;30.150;2022-09-13T02:25:48;98708.72;;;13.98;72.03
61474;BME280;53694;49.784;30.150;2022-09-13T02:26:52;98704.18;;;13.70;73.03
61474;BME280;53694;49.784;30.150;2022-09-13T02:27:58;98706.27;;;13.52;73.97
61474;BME280;53694;49.784;30.150;2022-09-13T02:29:02;98700.36;;;13.49;74.48
61474;BME280;53694;49.784;30.150;2022-09-13T02:30:08;98715.66;;;13.61;74.64
61474;BME280;53694;49.784;30.150;2022-09-13T02:31:10;98703.30;;;13.80;74.19
61474;BME280;53694;49.784;30.150;2022-09-13T02:32:17;98701.55;;;14.04;73.65
61474;BME280;53694;49.784;30.150;2022-09-13T02:33:25;98712.39;;;14.29;72.95
61474;BME280;53694;49.784;30.150;2022-09-13T02:34:34;98709.00;;;14.56;72.15
61474;BME280;53694;49.784;30.150;2022-09-13T02:36:43;98705.61;;;15.13;70.65
61474;BME280;53694;49.784;30.150;2022-09-13T02:37:50;98698.59;;;15.35;68.88
61474;BME280;53694;49.784;30.150;2022-09-13T02:38:58;98712.59;;;15.52;68.43
61474;BME280;53694;49.784;30.150;2022-09-13T02:40:03;98708.44;;;15.67;68.18
61474;BME280;53694;49.784;30.150;2022-09-13T02:41:16;98703.19;;;15.76;67.82
61474;BME280;53694;49.784;30.150;2022-09-13T02:42:22;98704.84;;;15.70;67.68
61474;BME280;53694;49.784;30.150;2022-09-13T02:43:31;98709.88;;;15.48;68.07
61474;BME280;53694;49.784;30.150;2022-09-13T02:44:39;98703.11;;;15.22;68.60
61474;BME280;53694;49.784;30.150;2022-09-13T02:46:00;98699.13;;;14.92;69.44
61474;BME280;53694;49.784;30.150;2022-09-13T02:47:10;98702.66;;;14.59;70.31
61474;BME280;53694;49.784;30.150;2022-09-13T02:48:23;98693.50;;;14.24;71.46
61474;BME280;53694;49.784;30.150;2022-09-13T02:49:27;98692.98;;;13.91;72.63
61474;BME280;53694;49.784;30.150;2022-09-13T02:51:05;98690.38;;;13.70;73.68
61474;BME280;53694;49.784;30.150;2022-09-13T02:53:49;98690.25;;;13.88;74.01
61474;BME280;53694;49.784;30.150;2022-09-13T02:54:56;98692.00;;;14.16;73.57
61474;BME280;53694;49.784;30.150;2022-09-13T02:57:20;98692.48;;;14.86;71.58
61474;BME280;53694;49.784;30.150;2022-09-13T02:59:35;98688.57;;;15.45;69.74
61474;BME280;53694;49.784;30.150;2022-09-13T03:00:37;98688.62;;;15.72;68.36
61474;BME280;53694;49.784;30.150;2022-09-13T03:01:41;98686.45;;;15.83;67.74
61474;BME280;53694;49.784;30.150;2022-09-13T03:02:45;98683.58;;;15.90;67.45
61474;BME280;53694;49.784;30.150;2022-09-13T03:03:51;98679.70;;;15.84;67.55
61474;BME280;53694;49.784;30.150;2022-09-13T03:04:53;98690.27;;;15.66;67.86
61474;BME280;53694;49.784;30.150;2022-09-13T03:05:54;98678.75;;;15.40;68.55
61474;BME280;53694;49.784;30.150;2022-09-13T03:06:56;98679.94;;;15.12;69.20
61474;BME280;53694;49.784;30.150;2022-09-13T03:07:58;98674.80;;;14.80;70.13
61474;BME280;53694;49.784;30.150;2022-09-13T03:09:02;98674.31;;;14.51;71.00
61474;BME280;53694;49.784;30.150;2022-09-13T03:10:11;98674.98;;;14.21;72.04
61474;BME280;53694;49.784;30.150;2022-09-13T03:16:47;98685.14;;;14.72;72.41
61474;BME280;53694;49.784;30.150;2022-09-13T03:20:24;98681.64;;;15.60;69.11
61474;BME280;53694;49.784;30.150;2022-09-13T03:29:25;98684.49;;;14.95;69.95
61474;BME280;53694;49.784;30.150;2022-09-13T03:30:28;98675.09;;;14.52;71.27
61474;BME280;53694;49.784;30.150;2022-09-13T03:33:46;98675.62;;;13.94;73.39
61474;BME280;53694;49.784;30.150;2022-09-13T03:34:08;98677.34;;;13.74;74.59
61474;BME280;53694;49.784;30.150;2022-09-13T03:35:41;98675.71;;;13.80;75.00
61474;BME280;53694;49.784;30.150;2022-09-13T03:36:46;98668.45;;;14.00;74.81
61474;BME280;53694;49.784;30.150;2022-09-13T03:41:33;98676.66;;;15.21;71.46
61474;BME280;53694;49.784;30.150;2022-09-13T03:43:49;98675.23;;;15.67;69.59
61474;BME280;53694;49.784;30.150;2022-09-13T03:44:54;98676.94;;;15.84;68.97
61474;BME280;53694;49.784;30.150;2022-09-13T03:45:59;98674.30;;;16.00;68.14
61474;BME280;53694;49.784;30.150;2022-09-13T03:47:03;98678.58;;;16.05;67.82
61474;BME280;53694;49.784;30.150;2022-09-13T03:48:06;98679.11;;;15.96;67.77
61474;BME280;53694;49.784;30.150;2022-09-13T03:49:12;98674.78;;;15.72;68.03
61474;BME280;53694;49.784;30.150;2022-09-13T03:50:18;98670.45;;;15.40;68.90
61474;BME280;53694;49.784;30.150;2022-09-13T03:51:21;98675.70;;;15.04;70.04
61474;BME280;53694;49.784;30.150;2022-09-13T03:52:23;98670.58;;;14.68;71.34
61474;BME280;53694;49.784;30.150;2022-09-13T03:53:27;98665.77;;;14.35;72.50
61474;BME280;53694;49.784;30.150;2022-09-13T03:54:31;98672.70;;;14.12;73.63
61474;BME280;53694;49.784;30.150;2022-09-13T03:55:38;98669.99;;;14.05;74.33
61474;BME280;53694;49.784;30.150;2022-09-13T03:56:40;98673.88;;;14.15;74.57
61474;BME280;53694;49.784;30.150;2022-09-13T03:57:41;98671.71;;;14.33;74.27
61474;BME280;53694;49.784;30.150;2022-09-13T03:58:43;98673.51;;;14.54;73.89
61474;BME280;53694;49.784;30.150;2022-09-13T03:59:48;98674.41;;;14.78;73.13
61474;BME280;53694;49.784;30.150;2022-09-13T04:00:50;98672.97;;;15.00;72.36
61474;BME280;53694;49.784;30.150;2022-09-13T04:01:52;98675.03;;;15.23;71.62
61474;BME280;53694;49.784;30.150;2022-09-13T04:02:53;98677.93;;;15.43;70.98
61474;BME280;53694;49.784;30.150;2022-09-13T04:03:55;98671.70;;;15.63;70.12
61474;BME280;53694;49.784;30.150;2022-09-13T04:04:57;98664.78;;;15.78;69.61
61474;BME280;53694;49.784;30.150;2022-09-13T04:05:58;98672.63;;;16.07;68.47
61474;BME280;53694;49.784;30.150;2022-09-13T04:07:00;98672.63;;;16.07;68.47
61474;BME280;53694;49.784;30.150;2022-09-13T04:08:03;98673.70;;;16.13;68.09
61474;BME280;53694;49.784;30.150;2022-09-13T04:09:05;98676.18;;;16.07;68.53
61474;BME280;53694;49.784;30.150;2022-09-13T04:10:08;98682.02;;;15.89;68.41
61474;BME280;53694;49.784;30.150;2022-09-13T04:11:09;98676.10;;;15.60;68.95
61474;BME280;53694;49.784;30.150;2022-09-13T04:12:12;98678.96;;;15.26;69.85
61474;BME280;53694;49.784;30.150;2022-09-13T04:13:14;98677.84;;;14.89;71.08
61474;BME280;53694;49.784;30.150;2022-09-13T04:14:16;98676.27;;;14.54;72.46
61474;BME280;53694;49.784;30.150;2022-09-13T04:15:17;98673.75;;;14.25;73.73
61474;BME280;53694;49.784;30.150;2022-09-13T04:16:19;98677.10;;;14.06;74.77
61474;BME280;53694;49.784;30.150;2022-09-13T04:17:21;98676.34;;;14.02;75.41
61474;BME280;53694;49.784;30.150;2022-09-13T04:18:23;98680.62;;;14.10;75.61
61474;BME280;53694;49.784;30.150;2022-09-13T04:19:25;98672.16;;;14.28;75.45
61474;BME280;53694;49.784;30.150;2022-09-13T04:20:26;98680.63;;;14.52;75.14
61474;BME280;53694;49.784;30.150;2022-09-13T04:21:28;98686.66;;;14.77;74.17
61474;BME280;53694;49.784;30.150;2022-09-13T04:22:30;98681.27;;;15.00;73.44
61474;BME280;53694;49.784;30.150;2022-09-13T04:23:31;98686.83;;;15.28;72.75
61474;BME280;53694;49.784;30.150;2022-09-13T04:24:33;98690.08;;;15.49;71.70
61474;BME280;53694;49.784;30.150;2022-09-13T04:25:37;98674.40;;;15.70;71.28
61474;BME280;53694;49.784;30.150;2022-09-13T04:26:39;98683.14;;;15.92;70.57
61474;BME280;53694;49.784;30.150;2022-09-13T04:27:41;98682.50;;;16.08;69.40
61474;BME280;53694;49.784;30.150;2022-09-13T04:28:43;98682.68;;;16.20;69.02
61474;BME280;53694;49.784;30.150;2022-09-13T04:29:44;98688.73;;;16.35;68.68
61474;BME280;53694;49.784;30.150;2022-09-13T04:30:48;98678.03;;;16.37;68.11
61474;BME280;53694;49.784;30.150;2022-09-13T04:31:51;98684.06;;;16.32;68.08
61474;BME280;53694;49.784;30.150;2022-09-13T04:32:53;98686.83;;;16.09;68.57
61474;BME280;53694;49.784;30.150;2022-09-13T04:33:54;98688.14;;;15.77;69.24
61474;BME280;53694;49.784;30.150;2022-09-13T04:34:56;98695.36;;;15.40;70.46
61474;BME280;53694;49.784;30.150;2022-09-13T04:35:58;98681.23;;;15.04;71.70
61474;BME280;53694;49.784;30.150;2022-09-13T04:37:00;98686.77;;;14.70;73.00
61474;BME280;53694;49.784;30.150;2022-09-13T04:38:02;98684.63;;;14.43;74.15
61474;BME280;53694;49.784;30.150;2022-09-13T04:39:03;98684.72;;;14.36;74.95
61474;BME280;53694;49.784;30.150;2022-09-13T04:40:06;98683.45;;;14.44;75.33
61474;BME280;53694;49.784;30.150;2022-09-13T04:41:11;98692.78;;;14.61;75.10
61474;BME280;53694;49.784;30.150;2022-09-13T04:42:12;98696.48;;;14.82;74.77
61474;BME280;53694;49.784;30.150;2022-09-13T04:43:17;98700.16;;;15.06;74.12
61474;BME280;53694;49.784;30.150;2022-09-13T04:44:19;98695.44;;;15.33;73.67
61474;BME280;53694;49.784;30.150;2022-09-13T04:45:23;98693.53;;;15.57;72.36
61474;BME280;53694;49.784;30.150;2022-09-13T04:46:25;98698.43;;;15.77;71.62
61474;BME280;53694;49.784;30.150;2022-09-13T04:47:27;98699.28;;;15.97;70.54
61474;BME280;53694;49.784;30.150;2022-09-13T04:48:28;98706.22;;;16.09;70.34
61474;BME280;53694;49.784;30.150;2022-09-13T04:49:30;98704.78;;;16.24;69.80
61474;BME280;53694;49.784;30.150;2022-09-13T04:50:32;98705.73;;;16.37;69.42
61474;BME280;53694;49.784;30.150;2022-09-13T04:51:34;98698.81;;;16.49;68.81
61474;BME280;53694;49.784;30.150;2022-09-13T04:52:35;98695.97;;;16.53;69.08
61474;BME280;53694;49.784;30.150;2022-09-13T04:53:37;98695.97;;;16.53;69.08
61474;BME280;53694;49.784;30.150;2022-09-13T04:54:38;98702.19;;;16.37;68.96
61474;BME280;53694;49.784;30.150;2022-09-13T04:55:40;98695.14;;;16.09;69.26
61474;BME280;53694;49.784;30.150;2022-09-13T04:56:42;98705.22;;;15.72;70.15
61474;BME280;53694;49.784;30.150;2022-09-13T04:57:44;98697.38;;;15.36;71.24
61474;BME280;53694;49.784;30.150;2022-09-13T04:58:46;98699.77;;;15.04;72.60
61474;BME280;53694;49.784;30.150;2022-09-13T04:59:47;98704.77;;;14.82;73.83
61474;BME280;53694;49.784;30.150;2022-09-13T05:00:49;98698.92;;;14.76;74.45
61474;BME280;53694;49.784;30.150;2022-09-13T05:01:50;98698.92;;;14.76;74.45
61474;BME280;53694;49.784;30.150;2022-09-13T05:02:55;98698.35;;;14.92;74.71
61474;BME280;53694;49.784;30.150;2022-09-13T05:03:57;98704.41;;;15.14;74.46
61474;BME280;53694;49.784;30.150;2022-09-13T05:04:59;98700.89;;;15.40;73.81
61474;BME280;53694;49.784;30.150;2022-09-13T05:06:09;98701.34;;;15.66;72.92
61474;BME280;53694;49.784;30.150;2022-09-13T05:07:11;98697.04;;;15.88;71.87
61474;BME280;53694;49.784;30.150;2022-09-13T05:08:12;98697.42;;;16.14;71.34
61474;BME280;53694;49.784;30.150;2022-09-13T05:09:14;98702.59;;;16.35;70.51
61474;BME280;53694;49.784;30.150;2022-09-13T05:10:16;98701.86;;;16.55;69.67
61474;BME280;53694;49.784;30.150;2022-09-13T05:11:18;98694.02;;;16.73;69.13
61474;BME280;53694;49.784;30.150;2022-09-13T05:12:20;98694.47;;;16.91;68.55
61474;BME280;53694;49.784;30.150;2022-09-13T05:13:21;98702.29;;;16.96;67.46
61474;BME280;53694;49.784;30.150;2022-09-13T05:14:22;98702.29;;;16.96;67.46
61474;BME280;53694;49.784;30.150;2022-09-13T05:15:24;98697.09;;;16.79;67.85
61474;BME280;53694;49.784;30.150;2022-09-13T05:16:30;98708.62;;;16.54;68.36
61474;BME280;53694;49.784;30.150;2022-09-13T05:17:31;98706.83;;;16.20;69.48
61474;BME280;53694;49.784;30.150;2022-09-13T05:18:35;98705.00;;;15.86;70.32
61474;BME280;53694;49.784;30.150;2022-09-13T05:19:37;98706.21;;;15.55;71.46
61474;BME280;53694;49.784;30.150;2022-09-13T05:20:38;98712.55;;;15.24;72.49
61474;BME280;53694;49.784;30.150;2022-09-13T05:21:40;98702.18;;;15.02;73.46
61474;BME280;53694;49.784;30.150;2022-09-13T05:22:41;98703.73;;;15.03;74.67
61474;BME280;53694;49.784;30.150;2022-09-13T05:23:43;98703.73;;;15.03;74.67
61474;BME280;53694;49.784;30.150;2022-09-13T05:24:45;98703.94;;;15.19;74.40
61474;BME280;53694;49.784;30.150;2022-09-13T05:25:52;98703.70;;;15.37;74.12
61474;BME280;53694;49.784;30.150;2022-09-13T05:26:54;98704.60;;;15.57;73.30
61474;BME280;53694;49.784;30.150;2022-09-13T05:27:55;98705.09;;;15.79;72.73
61474;BME280;53694;49.784;30.150;2022-09-13T05:28:58;98702.38;;;16.03;71.73
61474;BME280;53694;49.784;30.150;2022-09-13T05:30:00;98708.05;;;16.19;71.07
61474;BME280;53694;49.784;30.150;2022-09-13T05:31:15;98705.30;;;16.39;70.62
61474;BME280;53694;49.784;30.150;2022-09-13T05:32:16;98699.47;;;16.57;69.87
61474;BME280;53694;49.784;30.150;2022-09-13T05:33:17;98704.27;;;16.76;69.02
61474;BME280;53694;49.784;30.150;2022-09-13T05:34:19;98706.41;;;16.88;68.55
61474;BME280;53694;49.784;30.150;2022-09-13T05:35:20;98706.27;;;16.95;68.26
61474;BME280;53694;49.784;30.150;2022-09-13T05:36:24;98711.95;;;16.88;68.11
61474;BME280;53694;49.784;30.150;2022-09-13T05:37:25;98711.12;;;16.68;68.36
61474;BME280;53694;49.784;30.150;2022-09-13T05:38:27;98708.45;;;16.41;69.11
61474;BME280;53694;49.784;30.150;2022-09-13T05:39:28;98710.20;;;16.08;69.93
61474;BME280;53694;49.784;30.150;2022-09-13T05:40:30;98713.87;;;15.74;70.88
61474;BME280;53694;49.784;30.150;2022-09-13T05:41:32;98715.45;;;15.44;72.11
61474;BME280;53694;49.784;30.150;2022-09-13T05:42:34;98717.41;;;15.17;73.27
61474;BME280;53694;49.784;30.150;2022-09-13T05:43:35;98719.23;;;14.96;74.31
61474;BME280;53694;49.784;30.150;2022-09-13T05:44:37;98716.95;;;14.88;74.87
61474;BME280;53694;49.784;30.150;2022-09-13T05:45:39;98720.83;;;14.94;75.18
61474;BME280;53694;49.784;30.150;2022-09-13T05:46:41;98723.44;;;15.08;75.14
61474;BME280;53694;49.784;30.150;2022-09-13T05:47:43;98718.04;;;15.28;74.81
61474;BME280;53694;49.784;30.150;2022-09-13T05:48:45;98721.25;;;15.54;74.26
61474;BME280;53694;49.784;30.150;2022-09-13T05:49:46;98718.20;;;15.75;72.98
61474;BME280;53694;49.784;30.150;2022-09-13T05:50:48;98721.03;;;15.98;72.32
61474;BME280;53694;49.784;30.150;2022-09-13T05:51:50;98717.91;;;16.20;71.48
61474;BME280;53694;49.784;30.150;2022-09-13T05:52:52;98719.94;;;16.39;70.64
61474;BME280;53694;49.784;30.150;2022-09-13T05:53:54;98713.33;;;16.57;70.03
61474;BME280;53694;49.784;30.150;2022-09-13T05:54:55;98720.16;;;16.72;69.78
61474;BME280;53694;49.784;30.150;2022-09-13T05:55:57;98720.27;;;16.88;68.97
61474;BME280;53694;49.784;30.150;2022-09-13T05:56:59;98721.56;;;17.04;68.64
61474;BME280;53694;49.784;30.150;2022-09-13T05:58:01;98725.05;;;17.08;67.61
61474;BME280;53694;49.784;30.150;2022-09-13T05:59:02;98718.92;;;16.96;67.65
61474;BME280;53694;49.784;30.150;2022-09-13T06:00:05;98723.73;;;16.72;68.30
61474;BME280;53694;49.784;30.150;2022-09-13T06:01:07;98718.32;;;16.42;69.32
61474;BME280;53694;49.784;30.150;2022-09-13T06:02:09;98722.48;;;16.07;70.37
61474;BME280;53694;49.784;30.150;2022-09-13T06:03:11;98725.00;;;15.70;71.67
61474;BME280;53694;49.784;30.150;2022-09-13T06:04:12;98719.05;;;15.41;73.00
61474;BME280;53694;49.784;30.150;2022-09-13T06:05:14;98722.47;;;15.22;74.08
61474;BME280;53694;49.784;30.150;2022-09-13T06:06:16;98725.32;;;15.15;74.47
61474;BME280;53694;49.784;30.150;2022-09-13T06:07:18;98724.03;;;15.23;74.91
61474;BME280;53694;49.784;30.150;2022-09-13T06:08:20;98729.51;;;15.57;74.04
61474;BME280;53694;49.784;30.150;2022-09-13T06:09:21;98729.51;;;15.57;74.04
61474;BME280;53694;49.784;30.150;2022-09-13T06:10:24;98728.87;;;15.77;73.28
61474;BME280;53694;49.784;30.150;2022-09-13T06:11:26;98729.28;;;16.02;72.35
61474;BME280;53694;49.784;30.150;2022-09-13T06:12:27;98732.11;;;16.22;71.59
61474;BME280;53694;49.784;30.150;2022-09-13T06:13:29;98733.79;;;16.63;70.11
61474;BME280;53694;49.784;30.150;2022-09-13T06:14:30;98733.79;;;16.63;70.11
61474;BME280;53694;49.784;30.150;2022-09-13T06:15:32;98731.09;;;16.83;69.72
61474;BME280;53694;49.784;30.150;2022-09-13T06:16:35;98730.73;;;17.01;68.74
61474;BME280;53694;49.784;30.150;2022-09-13T06:17:36;98733.58;;;17.17;68.18
61474;BME280;53694;49.784;30.150;2022-09-13T06:18:38;98732.64;;;17.23;67.81
61474;BME280;53694;49.784;30.150;2022-09-13T06:19:40;98731.15;;;17.19;67.72
61474;BME280;53694;49.784;30.150;2022-09-13T06:20:42;98732.73;;;17.00;67.58
61474;BME280;53694;49.784;30.150;2022-09-13T06:21:44;98738.44;;;16.69;68.24
61474;BME280;53694;49.784;30.150;2022-09-13T06:22:47;98744.96;;;16.36;69.51
61474;BME280;53694;49.784;30.150;2022-09-13T06:23:53;98747.03;;;16.05;70.52
61474;BME280;53694;49.784;30.150;2022-09-13T06:24:55;98743.16;;;15.71;71.46
61474;BME280;53694;49.784;30.150;2022-09-13T06:26:11;98746.40;;;15.36;72.88
61474;BME280;53694;49.784;30.150;2022-09-13T06:27:13;98747.87;;;15.13;73.89
61474;BME280;53694;49.784;30.150;2022-09-13T06:28:14;98744.75;;;15.08;74.93
61474;BME280;53694;49.784;30.150;2022-09-13T06:29:16;98742.66;;;15.19;75.11
61474;BME280;53694;49.784;30.150;2022-09-13T06:30:19;98747.60;;;15.35;74.52
61474;BME280;53694;49.784;30.150;2022-09-13T06:31:23;98749.66;;;15.58;73.87
61474;BME280;53694;49.784;30.150;2022-09-13T06:32:25;98745.44;;;15.80;73.35
61474;BME280;53694;49.784;30.150;2022-09-13T06:33:27;98745.90;;;16.02;72.48
61474;BME280;53694;49.784;30.150;2022-09-13T06:34:28;98761.75;;;16.25;71.79